Tres Isletas, Argentina
Current Conditions -  °F | °C
As of 1:00 PM on Friday 24 Oct 2014 (Local Time) from SARC Reporting Station
Scattered Clouds Scattered Clouds  
Wind Chill: 34°   Ceiling: Unl
Heat Index: 34°   Visibility: 6mi
Dew Point: 17°   Wind: 7mph
Humidity: 36%   Direction: 200°SSW
Pressure: 29.88"   Gusts: NA
Location:  26.35°S, 60.43°W
Report Text: SARC 241600Z 20006KT 120V230 9999 SCT02534/17 Q1012
Loading
Personal Weather Stations






























Interactive Weather Map
Tropical Storm Tracking
New forecast layout! Learn more

10-Day Weather Forecast

Advertisements
Track Severe Weather on mobile